createdAt,value
2023-03-17T00:01:57.875Z,57.40
2023-03-17T00:04:27.440Z,56.60
2023-03-17T00:06:56.669Z,56.60
2023-03-17T00:09:24.508Z,56.50
2023-03-17T00:11:54.512Z,56.30
2023-03-17T00:14:22.819Z,56.30
2023-03-17T00:16:52.085Z,56.90
2023-03-17T00:19:32.320Z,56.30
2023-03-17T00:22:00.956Z,55.70
2023-03-17T00:24:29.308Z,55.30
2023-03-17T00:26:58.899Z,55.30
2023-03-17T00:29:26.849Z,55.30
2023-03-17T00:31:55.906Z,54.90
2023-03-17T00:34:24.267Z,55.00
2023-03-17T00:36:52.669Z,55.00
2023-03-17T00:39:20.685Z,55.20
2023-03-17T00:41:49.080Z,55.30
2023-03-17T00:44:18.512Z,55.70
2023-03-17T00:46:47.039Z,55.70
2023-03-17T00:49:20.921Z,55.00
2023-03-17T00:51:50.620Z,55.40
2023-03-17T00:54:20.608Z,55.50
2023-03-17T00:56:49.863Z,55.70
2023-03-17T00:59:25.942Z,56.00
2023-03-17T01:01:54.186Z,56.00
2023-03-17T01:04:22.083Z,56.10
2023-03-17T01:06:52.105Z,56.10
2023-03-17T01:09:21.213Z,55.70
2023-03-17T01:11:49.514Z,55.90
2023-03-17T01:14:17.753Z,56.00
2023-03-17T01:16:47.740Z,56.00
2023-03-17T01:19:16.720Z,55.90
2023-03-17T01:21:45.585Z,55.90
2023-03-17T01:24:14.467Z,56.30
2023-03-17T01:26:42.428Z,55.80
2023-03-17T01:29:10.319Z,55.90
2023-03-17T01:31:39.193Z,55.70
2023-03-17T01:34:08.427Z,55.40
2023-03-17T01:36:37.510Z,55.60
2023-03-17T01:39:07.317Z,55.30
2023-03-17T01:41:37.568Z,55.70
2023-03-17T01:44:07.214Z,55.50
2023-03-17T01:46:37.405Z,55.30
2023-03-17T01:49:15.786Z,55.50
2023-03-17T01:51:52.586Z,55.30
2023-03-17T01:54:25.224Z,55.30
2023-03-17T01:56:55.247Z,55.40
2023-03-17T01:59:27.842Z,55.30
2023-03-17T02:02:02.243Z,54.70
2023-03-17T02:04:32.666Z,54.90
2023-03-17T02:07:00.643Z,55.00
2023-03-17T02:09:29.315Z,54.70
2023-03-17T02:11:58.676Z,54.90
2023-03-17T02:14:27.102Z,55.00
2023-03-17T02:16:54.995Z,55.00
2023-03-17T02:19:23.225Z,54.90
2023-03-17T02:21:55.040Z,54.80
2023-03-17T02:24:31.177Z,55.10
2023-03-17T02:27:03.906Z,54.70
2023-03-17T02:29:36.031Z,54.50
2023-03-17T02:32:05.426Z,54.50
2023-03-17T02:34:33.666Z,54.60
2023-03-17T02:37:03.040Z,54.20
2023-03-17T02:39:32.088Z,53.80
2023-03-17T02:41:59.916Z,53.90
2023-03-17T02:44:28.026Z,54.00
2023-03-17T02:46:56.672Z,54.00
2023-03-17T02:49:27.187Z,53.80
2023-03-17T02:51:55.134Z,53.60
2023-03-17T02:54:24.513Z,53.80
2023-03-17T02:56:52.723Z,53.70
2023-03-17T02:59:20.737Z,53.70
2023-03-17T03:01:50.644Z,54.10
2023-03-17T03:04:19.113Z,53.90
2023-03-17T03:06:47.643Z,53.50
2023-03-17T03:09:17.766Z,53.50
2023-03-17T03:11:48.088Z,53.40
2023-03-17T03:14:16.276Z,53.40
2023-03-17T03:16:44.669Z,53.20
2023-03-17T03:19:12.531Z,53.30
2023-03-17T03:21:40.637Z,53.30
2023-03-17T03:24:09.272Z,53.20
2023-03-17T03:26:37.307Z,53.60
2023-03-17T03:29:06.950Z,53.30
2023-03-17T03:31:34.855Z,53.00
2023-03-17T03:34:02.592Z,53.00
2023-03-17T03:36:30.511Z,52.90
2023-03-17T03:38:58.723Z,52.90
2023-03-17T03:41:27.369Z,52.80
2023-03-17T03:43:55.182Z,52.80
2023-03-17T03:46:24.372Z,52.70
2023-03-17T03:48:52.147Z,52.70
2023-03-17T03:51:20.034Z,52.70
2023-03-17T03:53:48.249Z,52.70
2023-03-17T03:56:16.314Z,52.40
2023-03-17T03:58:44.230Z,52.50
2023-03-17T04:01:12.377Z,52.40
2023-03-17T04:03:41.664Z,52.10
2023-03-17T04:06:09.619Z,52.00
2023-03-17T04:08:37.560Z,52.00
2023-03-17T04:11:05.679Z,52.10
2023-03-17T04:13:33.429Z,52.20
2023-03-17T04:16:02.243Z,52.20
2023-03-17T04:18:30.975Z,52.10
2023-03-17T04:21:00.427Z,52.00
2023-03-17T04:23:28.845Z,52.10
2023-03-17T04:25:56.736Z,52.10
2023-03-17T04:28:24.654Z,52.10
2023-03-17T04:30:52.545Z,52.10
2023-03-17T04:33:20.592Z,52.30
2023-03-17T04:35:48.441Z,52.30
2023-03-17T04:38:17.552Z,52.20
2023-03-17T04:40:45.389Z,52.40
2023-03-17T04:43:13.203Z,52.50
2023-03-17T04:45:41.123Z,52.20
2023-03-17T04:48:08.947Z,52.30
2023-03-17T04:50:36.773Z,52.30
2023-03-17T04:53:04.573Z,52.40
2023-03-17T04:55:33.727Z,52.50
2023-03-17T04:58:02.004Z,52.60
2023-03-17T05:00:30.018Z,52.80
2023-03-17T05:02:57.929Z,52.90
2023-03-17T05:05:25.864Z,53.00
2023-03-17T05:07:53.649Z,53.40
2023-03-17T05:10:21.444Z,53.10
2023-03-17T05:12:50.590Z,53.20
2023-03-17T05:15:18.498Z,53.20
2023-03-17T05:17:46.269Z,53.50
2023-03-17T05:20:14.890Z,53.40
2023-03-17T05:22:42.780Z,53.40
2023-03-17T05:25:11.288Z,53.60
2023-03-17T05:27:39.453Z,53.80
2023-03-17T05:30:10.205Z,53.70
2023-03-17T05:32:38.057Z,54.20
2023-03-17T05:35:06.699Z,53.80
2023-03-17T05:37:34.817Z,53.80
2023-03-17T05:40:03.101Z,53.90
2023-03-17T05:42:31.085Z,54.00
2023-03-17T05:44:59.252Z,54.10
2023-03-17T05:47:28.498Z,54.20
2023-03-17T05:49:56.307Z,54.20
2023-03-17T05:52:24.283Z,54.30
2023-03-17T05:54:53.412Z,54.40
2023-03-17T05:57:21.234Z,54.30
2023-03-17T05:59:50.760Z,54.30
2023-03-17T06:02:18.900Z,54.40
2023-03-17T06:04:48.647Z,54.40
2023-03-17T06:07:17.440Z,54.30
2023-03-17T06:09:45.265Z,54.30
2023-03-17T06:12:13.164Z,54.30
2023-03-17T06:14:41.029Z,54.80
2023-03-17T06:17:09.076Z,54.20
2023-03-17T06:19:36.993Z,54.00
2023-03-17T06:22:07.015Z,53.90
2023-03-17T06:24:35.063Z,53.90
2023-03-17T06:27:03.388Z,53.60
2023-03-17T06:29:31.765Z,53.60
2023-03-17T06:32:09.215Z,53.50
2023-03-17T06:34:45.234Z,53.50
2023-03-17T06:37:14.605Z,53.40
2023-03-17T06:39:42.790Z,53.20
2023-03-17T06:42:10.883Z,53.20
2023-03-17T06:44:38.826Z,53.10
2023-03-17T06:47:07.292Z,53.00
2023-03-17T06:49:35.287Z,53.00
2023-03-17T06:52:03.427Z,53.00
2023-03-17T06:54:32.804Z,53.00
2023-03-17T06:57:00.776Z,53.10
2023-03-17T06:59:30.598Z,53.00
2023-03-17T07:01:58.930Z,52.90
2023-03-17T07:04:27.237Z,52.80
2023-03-17T07:06:55.141Z,52.50
2023-03-17T07:09:23.208Z,52.30
2023-03-17T07:11:52.545Z,52.20
2023-03-17T07:14:20.754Z,52.20
2023-03-17T07:16:50.294Z,51.50
2023-03-17T07:19:18.294Z,51.80
2023-03-17T07:21:47.163Z,51.50
2023-03-17T07:24:15.176Z,51.30
2023-03-17T07:26:43.036Z,51.30
2023-03-17T07:29:12.430Z,51.20
2023-03-17T07:31:41.461Z,50.60
2023-03-17T07:34:10.398Z,50.20
2023-03-17T07:36:38.487Z,50.00
2023-03-17T07:39:06.479Z,49.90
2023-03-17T07:41:34.520Z,49.90
2023-03-17T07:44:03.901Z,49.60
2023-03-17T07:46:33.206Z,49.40
2023-03-17T07:49:01.679Z,48.90
2023-03-17T07:51:29.775Z,48.60
2023-03-17T07:54:03.519Z,48.20
2023-03-17T07:56:31.836Z,48.10
2023-03-17T07:59:00.078Z,47.50
2023-03-17T08:01:28.382Z,47.40
2023-03-17T08:03:58.017Z,47.10
2023-03-17T08:06:26.497Z,47.00
2023-03-17T08:08:55.406Z,47.10
2023-03-17T08:11:24.185Z,46.60
2023-03-17T08:13:52.187Z,46.20
2023-03-17T08:16:20.130Z,46.10
2023-03-17T08:18:48.283Z,46.30
2023-03-17T08:21:17.641Z,46.30
2023-03-17T08:23:45.516Z,46.40
2023-03-17T08:26:14.260Z,46.60
2023-03-17T08:28:43.007Z,46.60
2023-03-17T08:31:13.891Z,46.60
2023-03-17T08:33:42.559Z,46.40
2023-03-17T08:36:13.498Z,46.60
2023-03-17T08:38:43.934Z,46.60
2023-03-17T08:41:14.290Z,46.80
2023-03-17T08:43:44.039Z,46.40
2023-03-17T08:46:16.882Z,46.70
2023-03-17T08:48:48.306Z,46.40
2023-03-17T08:51:18.726Z,46.50
2023-03-17T08:53:48.522Z,46.50
2023-03-17T08:56:16.915Z,46.40
2023-03-17T08:58:46.869Z,46.20
2023-03-17T09:01:15.512Z,45.90
2023-03-17T09:03:45.225Z,45.70
2023-03-17T09:06:13.564Z,45.90
2023-03-17T09:08:47.265Z,45.90
2023-03-17T09:11:18.629Z,45.60
2023-03-17T09:13:47.513Z,45.40
2023-03-17T09:16:16.113Z,44.80
2023-03-17T09:18:44.357Z,44.90
2023-03-17T09:21:13.061Z,44.80
2023-03-17T09:23:41.504Z,44.90
2023-03-17T09:26:10.174Z,44.90
2023-03-17T09:28:39.648Z,44.60
2023-03-17T09:31:11.393Z,44.30
2023-03-17T09:33:39.722Z,44.30
2023-03-17T09:36:08.447Z,44.30
2023-03-17T09:38:37.196Z,44.00
2023-03-17T09:41:23.820Z,44.10
2023-03-17T09:44:02.409Z,44.30
2023-03-17T09:46:42.451Z,43.90
2023-03-17T09:49:14.332Z,43.60
2023-03-17T09:51:43.104Z,43.40
2023-03-17T09:54:15.470Z,43.50
2023-03-17T09:56:47.096Z,43.50
2023-03-17T09:59:30.919Z,43.20
2023-03-17T10:01:58.800Z,43.30
2023-03-17T10:04:27.238Z,43.50
2023-03-17T10:07:01.591Z,43.50
2023-03-17T10:09:37.110Z,43.30
2023-03-17T10:12:10.947Z,43.40
2023-03-17T10:14:51.366Z,43.20
2023-03-17T10:17:21.020Z,43.30
2023-03-17T10:19:56.130Z,43.40
2023-03-17T10:22:30.305Z,43.10
2023-03-17T10:25:03.813Z,42.60
2023-03-17T10:27:36.219Z,42.30
2023-03-17T10:30:17.231Z,41.50
2023-03-17T10:32:46.486Z,41.40
2023-03-17T10:35:16.661Z,41.00
2023-03-17T10:37:45.690Z,40.90
2023-03-17T10:40:23.508Z,41.10
2023-03-17T10:42:55.083Z,40.80
2023-03-17T10:45:30.904Z,40.30
2023-03-17T10:48:00.541Z,40.30
2023-03-17T10:50:32.175Z,39.70
2023-03-17T10:53:02.206Z,40.10
2023-03-17T10:55:33.050Z,40.50
2023-03-17T10:58:05.191Z,40.40
2023-03-17T11:00:36.574Z,39.70
2023-03-17T11:03:13.034Z,39.60
2023-03-17T11:05:41.173Z,39.70
2023-03-17T11:08:12.667Z,39.50
2023-03-17T11:10:42.605Z,39.70
2023-03-17T11:13:11.298Z,39.50
2023-03-17T11:15:45.083Z,39.10
2023-03-17T11:18:20.836Z,39.10
2023-03-17T11:20:54.741Z,37.90
2023-03-17T11:23:34.038Z,37.50
2023-03-17T11:26:16.983Z,37.80
2023-03-17T11:28:51.352Z,38.10
2023-03-17T11:31:28.319Z,37.90
2023-03-17T11:34:02.192Z,37.70
2023-03-17T11:36:42.894Z,37.60
2023-03-17T11:39:15.574Z,37.40
2023-03-17T11:41:51.784Z,37.20
2023-03-17T11:44:42.587Z,37.30
2023-03-17T11:47:23.339Z,37.10
2023-03-17T11:50:00.111Z,37.20
2023-03-17T11:52:32.577Z,37.20
2023-03-17T11:55:10.207Z,37.10
2023-03-17T11:57:47.819Z,36.90
2023-03-17T12:00:22.695Z,37.10
2023-03-17T12:02:58.157Z,36.70
2023-03-17T12:05:27.438Z,36.50
2023-03-17T12:08:00.749Z,37.10
2023-03-17T12:10:34.808Z,37.20
2023-03-17T12:13:07.764Z,37.20
2023-03-17T12:15:38.952Z,37.20
2023-03-17T12:18:14.209Z,36.70
2023-03-17T12:20:50.939Z,36.70
2023-03-17T12:23:29.433Z,36.60
2023-03-17T12:26:03.766Z,36.70
2023-03-17T12:28:42.354Z,36.00
2023-03-17T12:31:16.821Z,35.50
2023-03-17T12:33:51.867Z,35.50
2023-03-17T12:36:20.694Z,35.80
2023-03-17T12:38:54.772Z,35.50
2023-03-17T12:41:44.970Z,35.50
2023-03-17T12:44:28.705Z,35.30
2023-03-17T12:47:14.372Z,35.20
2023-03-17T12:50:24.981Z,35.00
2023-03-17T12:53:17.034Z,34.80
2023-03-17T12:56:01.231Z,34.50
2023-03-17T12:58:36.463Z,34.30
2023-03-17T13:01:10.649Z,33.60
2023-03-17T13:04:01.597Z,33.90
2023-03-17T13:06:36.867Z,34.00
2023-03-17T13:09:19.456Z,34.30
2023-03-17T13:11:48.804Z,34.10
2023-03-17T13:14:25.843Z,33.30
2023-03-17T13:17:04.503Z,33.30
2023-03-17T13:19:34.042Z,33.20
2023-03-17T13:22:36.101Z,32.70
2023-03-17T13:25:27.406Z,31.80
2023-03-17T13:27:55.354Z,31.00
2023-03-17T13:30:52.600Z,31.80
2023-03-17T13:33:24.215Z,31.20
2023-03-17T13:36:12.911Z,31.00
2023-03-17T13:39:18.176Z,30.50
2023-03-17T13:42:17.739Z,30.80
2023-03-17T13:45:35.334Z,30.50
2023-03-17T13:48:18.975Z,29.90
2023-03-17T13:50:47.312Z,29.80
2023-03-17T13:53:16.481Z,30.30
2023-03-17T13:56:06.249Z,30.50
2023-03-17T13:58:36.084Z,30.40
2023-03-17T14:01:09.039Z,30.80
2023-03-17T14:03:46.014Z,31.80
2023-03-17T14:06:14.962Z,31.60
2023-03-17T14:08:48.188Z,31.20
2023-03-17T14:11:28.998Z,30.70
2023-03-17T14:14:26.031Z,30.90
2023-03-17T14:17:06.468Z,30.60
2023-03-17T14:19:41.466Z,29.70
2023-03-17T14:22:24.503Z,30.00
2023-03-17T14:25:04.489Z,30.10
2023-03-17T14:27:37.612Z,30.10
2023-03-17T14:30:09.878Z,30.50
2023-03-17T14:32:38.050Z,30.70
2023-03-17T14:35:07.059Z,31.00
2023-03-17T14:37:39.359Z,30.80
2023-03-17T14:40:21.690Z,30.90
2023-03-17T14:42:54.025Z,31.40
2023-03-17T14:45:28.590Z,31.50
2023-03-17T14:47:56.878Z,32.00
2023-03-17T14:50:29.055Z,32.10
2023-03-17T14:52:59.553Z,32.00
2023-03-17T14:55:36.558Z,32.00
2023-03-17T14:58:11.041Z,32.10
2023-03-17T15:00:46.264Z,32.30
2023-03-17T15:03:18.813Z,32.20
2023-03-17T15:05:49.624Z,32.40
2023-03-17T15:08:39.676Z,32.50
2023-03-17T15:11:09.217Z,32.60
2023-03-17T15:13:39.702Z,32.90
2023-03-17T15:16:07.954Z,32.90
2023-03-17T15:18:36.092Z,33.10
2023-03-17T15:21:04.069Z,33.20
2023-03-17T15:23:40.672Z,33.30
2023-03-17T15:26:23.426Z,33.60
2023-03-17T15:28:52.729Z,33.80
2023-03-17T15:31:23.559Z,33.90
2023-03-17T15:33:53.149Z,33.90
2023-03-17T15:36:32.399Z,34.00
2023-03-17T15:39:01.284Z,33.90
2023-03-17T15:41:29.652Z,34.00
2023-03-17T15:43:59.385Z,34.10
2023-03-17T15:46:31.110Z,34.00
2023-03-17T15:48:59.503Z,34.20
2023-03-17T15:51:27.824Z,34.40
2023-03-17T15:53:55.765Z,34.50
2023-03-17T15:56:23.925Z,34.80
2023-03-17T15:58:53.100Z,34.80
2023-03-17T16:01:22.682Z,34.90
2023-03-17T16:03:51.328Z,35.20
2023-03-17T16:06:21.484Z,35.40
2023-03-17T16:08:50.477Z,35.70
2023-03-17T16:11:22.678Z,36.20
2023-03-17T16:13:50.643Z,36.30
2023-03-17T16:16:22.583Z,36.10
2023-03-17T16:18:52.555Z,36.40
2023-03-17T16:21:21.385Z,36.70
2023-03-17T16:23:50.258Z,36.60
2023-03-17T16:26:18.107Z,36.70
2023-03-17T16:28:47.601Z,36.90
2023-03-17T16:31:26.786Z,37.00
2023-03-17T16:33:56.742Z,37.30
2023-03-17T16:36:26.127Z,37.40
2023-03-17T16:38:54.020Z,37.80
2023-03-17T16:41:23.752Z,38.00
2023-03-17T16:43:55.246Z,38.40
2023-03-17T16:46:23.825Z,38.50
2023-03-17T16:48:52.213Z,38.90
2023-03-17T16:51:21.978Z,38.80
2023-03-17T16:53:50.088Z,39.00
2023-03-17T16:56:21.596Z,39.30
2023-03-17T16:58:50.651Z,39.50
2023-03-17T17:01:22.507Z,39.60
2023-03-17T17:03:50.769Z,40.00
2023-03-17T17:06:22.334Z,40.20
2023-03-17T17:08:51.774Z,40.50
2023-03-17T17:11:21.150Z,40.80
2023-03-17T17:13:51.577Z,41.20
2023-03-17T17:16:24.355Z,41.70
2023-03-17T17:18:52.138Z,42.40
2023-03-17T17:21:21.467Z,42.70
2023-03-17T17:23:51.548Z,43.00
2023-03-17T17:26:20.797Z,43.20
2023-03-17T17:28:49.072Z,43.60
2023-03-17T17:31:16.957Z,43.60
2023-03-17T17:33:45.103Z,43.80
2023-03-17T17:36:16.297Z,44.00
2023-03-17T17:38:45.774Z,44.20
2023-03-17T17:41:16.861Z,44.30
2023-03-17T17:43:46.062Z,44.70
2023-03-17T17:46:17.598Z,45.30
2023-03-17T17:48:45.778Z,45.70
2023-03-17T17:51:13.609Z,46.10
2023-03-17T17:53:41.528Z,46.50
2023-03-17T17:56:15.232Z,47.00
2023-03-17T17:58:43.153Z,47.50
2023-03-17T18:01:11.826Z,48.00
2023-03-17T18:03:41.615Z,48.40
2023-03-17T18:06:09.689Z,48.50
2023-03-17T18:08:38.435Z,48.50
2023-03-17T18:11:06.764Z,48.40
2023-03-17T18:13:38.941Z,48.50
2023-03-17T18:16:09.806Z,48.40
2023-03-17T18:18:40.595Z,48.50
2023-03-17T18:21:09.033Z,48.80
2023-03-17T18:23:37.308Z,49.20
2023-03-17T18:26:06.523Z,49.60
2023-03-17T18:28:35.957Z,50.20
2023-03-17T18:31:10.586Z,50.50
2023-03-17T18:33:39.472Z,50.80
2023-03-17T18:36:08.861Z,51.20
2023-03-17T18:38:37.091Z,51.40
2023-03-17T18:41:05.832Z,51.40
2023-03-17T18:43:35.337Z,51.40
2023-03-17T18:46:03.281Z,51.50
2023-03-17T18:48:31.339Z,51.20
2023-03-17T18:50:59.186Z,51.10
2023-03-17T18:53:27.256Z,51.00
2023-03-17T18:55:55.452Z,51.40
2023-03-17T18:58:23.373Z,52.00
2023-03-17T19:00:53.439Z,52.40
2023-03-17T19:03:21.342Z,52.70
2023-03-17T19:05:49.174Z,53.10
2023-03-17T19:08:17.967Z,53.50
2023-03-17T19:10:46.066Z,53.60
2023-03-17T19:13:14.395Z,53.50
2023-03-17T19:15:42.723Z,53.40
2023-03-17T19:18:12.168Z,53.50
2023-03-17T19:20:40.055Z,53.40
2023-03-17T19:23:07.993Z,53.00
2023-03-17T19:25:36.989Z,52.70
2023-03-17T19:28:06.217Z,52.50
2023-03-17T19:30:34.870Z,52.10
2023-03-17T19:33:03.045Z,52.00
2023-03-17T19:35:32.476Z,51.80
2023-03-17T19:38:01.114Z,51.60
2023-03-17T19:40:29.275Z,51.40
2023-03-17T19:42:57.123Z,51.30
2023-03-17T19:45:26.104Z,51.30
2023-03-17T19:47:54.034Z,51.40
2023-03-17T19:50:21.923Z,51.30
2023-03-17T19:52:53.042Z,51.20
2023-03-17T19:55:21.555Z,51.00
2023-03-17T19:57:50.189Z,51.00
2023-03-17T20:00:19.402Z,50.80
2023-03-17T20:02:47.700Z,50.70
2023-03-17T20:05:16.053Z,50.50
2023-03-17T20:07:44.234Z,50.50
2023-03-17T20:10:13.805Z,50.30
2023-03-17T20:12:43.271Z,50.20
2023-03-17T20:15:13.014Z,50.20
2023-03-17T20:17:41.432Z,50.20
2023-03-17T20:20:11.068Z,50.10
2023-03-17T20:22:40.319Z,50.10
2023-03-17T20:25:10.304Z,50.20
2023-03-17T20:27:40.360Z,50.30
2023-03-17T20:30:12.066Z,50.70
2023-03-17T20:32:40.379Z,50.20
2023-03-17T20:35:08.957Z,50.40
2023-03-17T20:37:37.241Z,50.40
2023-03-17T20:40:08.267Z,50.50
2023-03-17T20:42:36.390Z,50.60
2023-03-17T20:45:07.426Z,50.60
2023-03-17T20:47:35.438Z,50.70
2023-03-17T20:50:06.186Z,50.70
2023-03-17T20:52:34.005Z,50.80
2023-03-17T20:55:02.473Z,50.90
2023-03-17T20:57:30.327Z,50.90
2023-03-17T20:59:58.521Z,50.80
2023-03-17T21:02:28.885Z,50.90
2023-03-17T21:04:56.829Z,50.90
2023-03-17T21:07:24.627Z,50.90
2023-03-17T21:09:56.347Z,51.00
2023-03-17T21:12:25.423Z,51.10
2023-03-17T21:14:53.277Z,51.00
2023-03-17T21:17:22.704Z,51.10
2023-03-17T21:19:51.939Z,51.20
2023-03-17T21:22:19.677Z,51.30
2023-03-17T21:24:47.610Z,51.20
2023-03-17T21:27:15.666Z,51.20
2023-03-17T21:29:43.528Z,51.20
2023-03-17T21:32:11.472Z,51.20
2023-03-17T21:34:39.365Z,51.30
2023-03-17T21:37:08.609Z,51.40
2023-03-17T21:39:37.101Z,51.50
2023-03-17T21:42:05.432Z,51.50
2023-03-17T21:44:33.450Z,51.60
2023-03-17T21:47:02.510Z,51.80
2023-03-17T21:49:30.540Z,51.80
2023-03-17T21:51:58.325Z,51.90
2023-03-17T21:54:28.378Z,51.90
2023-03-17T21:56:56.385Z,52.00
2023-03-17T21:59:24.897Z,52.00
2023-03-17T22:01:53.113Z,52.10
2023-03-17T22:04:21.035Z,52.10
2023-03-17T22:06:49.002Z,52.00
2023-03-17T22:09:19.141Z,52.10
2023-03-17T22:11:49.668Z,52.10
2023-03-17T22:14:20.427Z,52.20
2023-03-17T22:16:48.756Z,52.20
2023-03-17T22:19:19.329Z,52.20
2023-03-17T22:21:48.537Z,52.20
2023-03-17T22:24:16.710Z,52.20
2023-03-17T22:26:44.718Z,52.30
2023-03-17T22:29:13.848Z,52.40
2023-03-17T22:31:41.969Z,52.40
2023-03-17T22:34:10.349Z,52.50
2023-03-17T22:36:38.147Z,52.60
2023-03-17T22:39:08.808Z,52.50
2023-03-17T22:41:37.014Z,52.90
2023-03-17T22:44:04.923Z,52.50
2023-03-17T22:46:34.067Z,52.70
2023-03-17T22:49:02.050Z,52.80
2023-03-17T22:51:29.882Z,52.80
2023-03-17T22:53:58.533Z,52.90
2023-03-17T22:56:26.747Z,53.00
2023-03-17T22:58:55.708Z,53.10
2023-03-17T23:01:25.767Z,53.20
2023-03-17T23:03:55.986Z,53.10
2023-03-17T23:06:24.570Z,53.20
2023-03-17T23:08:52.462Z,53.20
2023-03-17T23:11:23.087Z,53.20
2023-03-17T23:13:52.548Z,53.30
2023-03-17T23:16:22.069Z,53.40
2023-03-17T23:18:50.870Z,53.50
2023-03-17T23:21:24.121Z,53.60
2023-03-17T23:23:51.947Z,53.60
2023-03-17T23:26:20.208Z,53.80
2023-03-17T23:28:48.298Z,53.90
2023-03-17T23:31:19.157Z,53.60
2023-03-17T23:33:47.890Z,53.40
2023-03-17T23:36:17.184Z,53.50
2023-03-17T23:38:47.195Z,53.60
2023-03-17T23:41:16.158Z,53.90
2023-03-17T23:43:44.055Z,53.90
2023-03-17T23:46:13.902Z,53.80
2023-03-17T23:48:42.872Z,53.70
2023-03-17T23:51:12.359Z,53.80
2023-03-17T23:53:41.655Z,53.90
2023-03-17T23:56:13.056Z,53.70
2023-03-17T23:58:42.428Z,53.80
